Main page
METAR-TAF:

METAR-TAF

Airports :

Cape Town, South Africa

Cape Town International Airport

latitude: 33-59S, longitude: 018-36E, elevation: 42 m

Current weather observation

The report was made 1 hour and 6 minutes ago, at 18:00 UTC
Wind 24 kt from the South/Southeast with gusts up to 35 kt
Temperature 23°C
Humidity 69%
Pressure 1010 hPa
Visibility 10 km or more
Few clouds at a height of 3000 ft

METAR: FACT 191800Z 15024G35KT 9999 FEW030 23/17 Q1010 NOSIG

Time: 21:06 (19:06 UTC)

Forecast

The report was made 3 hours and 6 minutes ago, at 16:00 UTC
Forecast valid from 19 at 18 UTC to 20 at 24 UTC
Wind 22 kt from the South
Visibility 10 km or more
Few clouds at a height of 3000 ft

TAF: FACT 191600Z 1918/2024 18022KT 9999 FEW030 TX30/2012Z TN19/2004Z

Weather observations and forecasts of more than 4000 airports (METAR and TAF reports).

The available stations are represented by yellow and red dots on the map.

Hover mouse over dot to see the name of the station.

Then click to see weather observations and forecasts.

To change the map : click on the green buttons with a black cross to zoom in, on the green button with a dash to zoom out, or on the green arrows for adjacent maps.


METAR-TAF: